sensor_id;sensor_type;location;lat;lon;timestamp;pressure;altitude;pressure_sealevel;temperature;humidity
5966;BME280;3009;43.224;27.976;2023-03-04T00:00:21;100566.38;;;5.00;100.00
5966;BME280;3009;43.224;27.976;2023-03-04T00:02:50;100560.00;;;4.90;100.00
5966;BME280;3009;43.224;27.976;2023-03-04T00:05:18;100561.88;;;4.85;100.00
5966;BME280;3009;43.224;27.976;2023-03-04T00:07:48;100563.19;;;4.82;100.00
5966;BME280;3009;43.224;27.976;2023-03-04T00:10:17;100556.56;;;4.85;100.00
5966;BME280;3009;43.224;27.976;2023-03-04T00:12:45;100562.38;;;4.92;100.00
5966;BME280;3009;43.224;27.976;2023-03-04T00:15:13;100558.66;;;4.93;100.00
5966;BME280;3009;43.224;27.976;2023-03-04T00:17:42;100576.75;;;4.91;100.00
5966;BME280;3009;43.224;27.976;2023-03-04T00:20:12;100570.09;;;4.88;100.00
5966;BME280;3009;43.224;27.976;2023-03-04T00:22:40;100575.66;;;4.92;100.00
5966;BME280;3009;43.224;27.976;2023-03-04T00:25:10;100576.22;;;4.94;100.00
5966;BME280;3009;43.224;27.976;2023-03-04T00:27:39;100577.81;;;5.00;100.00
5966;BME280;3009;43.224;27.976;2023-03-04T00:30:08;100575.16;;;5.05;100.00
5966;BME280;3009;43.224;27.976;2023-03-04T00:32:36;100571.41;;;5.11;100.00
5966;BME280;3009;43.224;27.976;2023-03-04T00:35:06;100572.25;;;5.12;100.00
5966;BME280;3009;43.224;27.976;2023-03-04T00:37:34;100573.56;;;5.09;100.00
5966;BME280;3009;43.224;27.976;2023-03-04T00:40:03;100572.50;;;5.05;100.00
5966;BME280;3009;43.224;27.976;2023-03-04T00:42:33;100581.00;;;5.12;100.00
5966;BME280;3009;43.224;27.976;2023-03-04T00:45:02;100569.84;;;5.10;100.00
5966;BME280;3009;43.224;27.976;2023-03-04T00:47:30;100571.41;;;5.11;100.00
5966;BME280;3009;43.224;27.976;2023-03-04T00:49:59;100566.91;;;5.12;100.00
5966;BME280;3009;43.224;27.976;2023-03-04T00:52:27;100558.69;;;5.13;100.00
5966;BME280;3009;43.224;27.976;2023-03-04T00:54:55;100562.94;;;5.09;100.00
5966;BME280;3009;43.224;27.976;2023-03-04T00:57:24;100554.69;;;5.11;100.00
5966;BME280;3009;43.224;27.976;2023-03-04T00:59:53;100554.44;;;5.07;100.00
5966;BME280;3009;43.224;27.976;2023-03-04T01:02:22;100544.84;;;5.01;100.00
5966;BME280;3009;43.224;27.976;2023-03-04T01:04:50;100549.13;;;4.97;100.00
5966;BME280;3009;43.224;27.976;2023-03-04T01:07:19;100548.03;;;4.98;100.00
5966;BME280;3009;43.224;27.976;2023-03-04T01:09:47;100540.88;;;5.04;100.00
5966;BME280;3009;43.224;27.976;2023-03-04T01:12:15;100534.75;;;5.13;100.00
5966;BME280;3009;43.224;27.976;2023-03-04T01:14:43;100531.56;;;5.22;100.00
5966;BME280;3009;43.224;27.976;2023-03-04T01:17:13;100533.13;;;5.28;100.00
5966;BME280;3009;43.224;27.976;2023-03-04T01:19:42;100537.38;;;5.24;100.00
5966;BME280;3009;43.224;27.976;2023-03-04T01:22:10;100533.94;;;5.28;100.00
5966;BME280;3009;43.224;27.976;2023-03-04T01:24:40;100533.69;;;5.30;100.00
5966;BME280;3009;43.224;27.976;2023-03-04T01:27:09;100534.72;;;5.39;100.00
5966;BME280;3009;43.224;27.976;2023-03-04T01:29:38;100530.22;;;5.24;100.00
5966;BME280;3009;43.224;27.976;2023-03-04T01:32:06;100526.25;;;5.27;100.00
5966;BME280;3009;43.224;27.976;2023-03-04T01:34:36;100535.28;;;5.15;100.00
5966;BME280;3009;43.224;27.976;2023-03-04T01:37:04;100535.03;;;5.12;100.00
5966;BME280;3009;43.224;27.976;2023-03-04T01:39:34;100533.69;;;5.14;100.00
5966;BME280;3009;43.224;27.976;2023-03-04T01:42:03;100523.59;;;5.06;100.00
5966;BME280;3009;43.224;27.976;2023-03-04T01:44:31;100526.50;;;5.10;100.00
5966;BME280;3009;43.224;27.976;2023-03-04T01:47:00;100525.72;;;5.09;100.00
5966;BME280;3009;43.224;27.976;2023-03-04T01:49:28;100529.44;;;5.08;100.00
5966;BME280;3009;43.224;27.976;2023-03-04T01:51:58;100527.84;;;5.12;100.00
5966;BME280;3009;43.224;27.976;2023-03-04T01:54:27;100527.84;;;5.12;100.00
5966;BME280;3009;43.224;27.976;2023-03-04T01:56:57;100517.50;;;5.06;100.00
5966;BME280;3009;43.224;27.976;2023-03-04T01:59:29;100515.88;;;5.10;100.00
5966;BME280;3009;43.224;27.976;2023-03-04T02:01:59;100514.28;;;5.14;100.00
5966;BME280;3009;43.224;27.976;2023-03-04T02:04:30;100512.97;;;5.17;100.00
5966;BME280;3009;43.224;27.976;2023-03-04T02:07:02;100518.25;;;5.22;100.00
5966;BME280;3009;43.224;27.976;2023-03-04T02:09:32;100516.66;;;5.21;100.00
5966;BME280;3009;43.224;27.976;2023-03-04T02:12:03;100518.00;;;5.23;100.00
5966;BME280;3009;43.224;27.976;2023-03-04T02:14:32;100516.41;;;5.17;100.00
5966;BME280;3009;43.224;27.976;2023-03-04T02:17:00;100513.50;;;5.13;100.00
5966;BME280;3009;43.224;27.976;2023-03-04T02:19:37;100523.56;;;5.22;100.00
5966;BME280;3009;43.224;27.976;2023-03-04T02:22:10;100515.31;;;5.33;100.00
5966;BME280;3009;43.224;27.976;2023-03-04T02:24:41;100512.38;;;5.35;100.00
5966;BME280;3009;43.224;27.976;2023-03-04T02:27:12;100500.97;;;5.35;100.00
5966;BME280;3009;43.224;27.976;2023-03-04T02:29:40;100508.91;;;5.45;100.00
5966;BME280;3009;43.224;27.976;2023-03-04T02:32:10;100504.91;;;5.53;100.00
5966;BME280;3009;43.224;27.976;2023-03-04T02:34:43;100505.97;;;5.46;100.00
5966;BME280;3009;43.224;27.976;2023-03-04T02:37:13;100512.66;;;5.44;100.00
5966;BME280;3009;43.224;27.976;2023-03-04T02:39:44;100513.72;;;5.32;100.00
5966;BME280;3009;43.224;27.976;2023-03-04T02:42:16;100517.72;;;5.35;100.00
5966;BME280;3009;43.224;27.976;2023-03-04T02:44:46;100515.28;;;5.39;100.00
5966;BME280;3009;43.224;27.976;2023-03-04T02:47:17;100513.19;;;5.30;100.00
5966;BME280;3009;43.224;27.976;2023-03-04T02:49:46;100526.25;;;5.27;100.00
5966;BME280;3009;43.224;27.976;2023-03-04T02:52:17;100528.09;;;5.31;100.00
5966;BME280;3009;43.224;27.976;2023-03-04T02:54:47;100533.13;;;5.28;100.00
5966;BME280;3009;43.224;27.976;2023-03-04T02:57:17;100529.94;;;5.31;100.00
5966;BME280;3009;43.224;27.976;2023-03-04T02:59:46;100531.00;;;5.25;100.00
5966;BME280;3009;43.224;27.976;2023-03-04T03:02:14;100531.31;;;5.18;100.00
5966;BME280;3009;43.224;27.976;2023-03-04T03:04:42;100529.97;;;5.15;100.00
5966;BME280;3009;43.224;27.976;2023-03-04T03:07:11;100535.56;;;5.14;100.00
5966;BME280;3009;43.224;27.976;2023-03-04T03:09:39;100536.88;;;5.17;100.00
5966;BME280;3009;43.224;27.976;2023-03-04T03:12:07;100535.53;;;5.19;100.00
5966;BME280;3009;43.224;27.976;2023-03-04T03:14:37;100535.25;;;5.21;100.00
5966;BME280;3009;43.224;27.976;2023-03-04T03:17:05;100530.75;;;5.16;100.00
5966;BME280;3009;43.224;27.976;2023-03-04T03:19:34;100530.47;;;5.18;100.00
5966;BME280;3009;43.224;27.976;2023-03-04T03:22:02;100535.56;;;5.09;100.00
5966;BME280;3009;43.224;27.976;2023-03-04T03:24:31;100549.63;;;5.14;100.00
5966;BME280;3009;43.224;27.976;2023-03-04T03:26:59;100546.72;;;5.06;100.00
5966;BME280;3009;43.224;27.976;2023-03-04T03:29:27;100538.75;;;5.11;100.00
5966;BME280;3009;43.224;27.976;2023-03-04T03:31:57;100537.69;;;5.12;100.00
5966;BME280;3009;43.224;27.976;2023-03-04T03:34:26;100544.84;;;5.06;100.00
5966;BME280;3009;43.224;27.976;2023-03-04T03:36:54;100536.63;;;5.08;100.00
5966;BME280;3009;43.224;27.976;2023-03-04T03:39:23;100535.81;;;5.12;100.00
5966;BME280;3009;43.224;27.976;2023-03-04T03:41:51;100536.34;;;5.20;100.00
5966;BME280;3009;43.224;27.976;2023-03-04T03:44:19;100536.06;;;5.16;100.00
5966;BME280;3009;43.224;27.976;2023-03-04T03:46:48;100536.63;;;5.18;100.00
5966;BME280;3009;43.224;27.976;2023-03-04T03:49:18;100536.63;;;5.08;100.00
5966;BME280;3009;43.224;27.976;2023-03-04T03:51:46;100531.03;;;5.14;100.00
5966;BME280;3009;43.224;27.976;2023-03-04T03:54:14;100532.34;;;5.07;100.00
5966;BME280;3009;43.224;27.976;2023-03-04T03:56:43;100529.97;;;5.10;100.00
5966;BME280;3009;43.224;27.976;2023-03-04T03:59:11;100534.75;;;5.08;100.00
5966;BME280;3009;43.224;27.976;2023-03-04T04:01:40;100535.56;;;5.04;100.00
5966;BME280;3009;43.224;27.976;2023-03-04T04:04:08;100533.44;;;5.11;100.00
5966;BME280;3009;43.224;27.976;2023-03-04T04:06:38;100533.41;;;5.16;100.00
5966;BME280;3009;43.224;27.976;2023-03-04T04:09:06;100549.63;;;5.09;100.00
5966;BME280;3009;43.224;27.976;2023-03-04T04:11:35;100544.56;;;5.03;100.00
5966;BME280;3009;43.224;27.976;2023-03-04T04:14:03;100531.56;;;5.06;100.00
5966;BME280;3009;43.224;27.976;2023-03-04T04:16:31;100537.94;;;5.10;100.00
5966;BME280;3009;43.224;27.976;2023-03-04T04:19:00;100541.94;;;5.08;100.00
5966;BME280;3009;43.224;27.976;2023-03-04T04:21:28;100544.06;;;5.01;100.00
5966;BME280;3009;43.224;27.976;2023-03-04T04:23:58;100547.22;;;5.03;100.00
5966;BME280;3009;43.224;27.976;2023-03-04T04:26:26;100547.50;;;5.06;100.00
5966;BME280;3009;43.224;27.976;2023-03-04T04:28:55;100547.50;;;4.96;100.00
5966;BME280;3009;43.224;27.976;2023-03-04T04:31:23;100548.84;;;4.99;100.00
5966;BME280;3009;43.224;27.976;2023-03-04T04:33:51;100547.50;;;5.01;100.00
5966;BME280;3009;43.224;27.976;2023-03-04T04:36:19;100556.56;;;5.00;100.00
5966;BME280;3009;43.224;27.976;2023-03-04T04:38:48;100556.28;;;5.12;100.00
5966;BME280;3009;43.224;27.976;2023-03-04T04:41:21;100554.94;;;5.14;100.00
5966;BME280;3009;43.224;27.976;2023-03-04T04:43:50;100553.63;;;5.12;100.00
5966;BME280;3009;43.224;27.976;2023-03-04T04:46:19;100544.84;;;5.11;100.00
5966;BME280;3009;43.224;27.976;2023-03-04T04:48:47;100560.81;;;5.17;100.00
5966;BME280;3009;43.224;27.976;2023-03-04T04:51:16;100572.22;;;5.17;100.00
5966;BME280;3009;43.224;27.976;2023-03-04T04:53:44;100571.97;;;5.03;100.00
5966;BME280;3009;43.224;27.976;2023-03-04T04:56:14;100567.47;;;5.09;100.00
5966;BME280;3009;43.224;27.976;2023-03-04T04:58:46;100578.88;;;5.20;100.00
5966;BME280;3009;43.224;27.976;2023-03-04T05:01:15;100576.22;;;5.20;100.00
5966;BME280;3009;43.224;27.976;2023-03-04T05:03:44;100577.81;;;5.10;100.00
5966;BME280;3009;43.224;27.976;2023-03-04T05:06:12;100586.31;;;5.07;100.00
5966;BME280;3009;43.224;27.976;2023-03-04T05:08:40;100590.81;;;5.07;100.00
5966;BME280;3009;43.224;27.976;2023-03-04T05:11:09;100598.53;;;5.08;100.00
5966;BME280;3009;43.224;27.976;2023-03-04T05:13:37;100604.38;;;5.15;100.00
5966;BME280;3009;43.224;27.976;2023-03-04T05:16:08;100599.63;;;5.23;100.00
5966;BME280;3009;43.224;27.976;2023-03-04T05:18:36;100603.31;;;5.22;100.00
5966;BME280;3009;43.224;27.976;2023-03-04T05:21:05;100608.09;;;5.25;100.00
5966;BME280;3009;43.224;27.976;2023-03-04T05:23:36;100616.63;;;5.27;100.00
5966;BME280;3009;43.224;27.976;2023-03-04T05:26:06;100610.25;;;5.23;100.00
5966;BME280;3009;43.224;27.976;2023-03-04T05:28:35;100607.84;;;5.26;100.00
5966;BME280;3009;43.224;27.976;2023-03-04T05:31:04;100616.63;;;5.27;100.00
5966;BME280;3009;43.224;27.976;2023-03-04T05:33:34;100621.94;;;5.22;100.00
5966;BME280;3009;43.224;27.976;2023-03-04T05:36:04;100623.28;;;5.24;100.00
5966;BME280;3009;43.224;27.976;2023-03-04T05:38:32;100625.13;;;5.29;100.00
5966;BME280;3009;43.224;27.976;2023-03-04T05:41:02;100628.31;;;5.21;100.00
5966;BME280;3009;43.224;27.976;2023-03-04T05:43:32;100624.59;;;5.11;100.00
5966;BME280;3009;43.224;27.976;2023-03-04T05:46:02;100624.34;;;5.18;100.00
5966;BME280;3009;43.224;27.976;2023-03-04T05:48:31;100619.03;;;5.28;100.00
5966;BME280;3009;43.224;27.976;2023-03-04T05:51:00;100625.13;;;5.29;100.00
5966;BME280;3009;43.224;27.976;2023-03-04T05:53:29;100619.28;;;5.32;100.00
5966;BME280;3009;43.224;27.976;2023-03-04T05:55:57;100613.16;;;5.42;100.00
5966;BME280;3009;43.224;27.976;2023-03-04T05:58:26;100619.28;;;5.42;100.00
5966;BME280;3009;43.224;27.976;2023-03-04T06:00:54;100612.63;;;5.50;100.00
5966;BME280;3009;43.224;27.976;2023-03-04T06:03:26;100607.03;;;5.52;100.00
5966;BME280;3009;43.224;27.976;2023-03-04T06:05:55;100611.81;;;5.65;100.00
5966;BME280;3009;43.224;27.976;2023-03-04T06:08:25;100605.13;;;5.67;100.00
5966;BME280;3009;43.224;27.976;2023-03-04T06:10:55;100608.59;;;5.73;100.00
5966;BME280;3009;43.224;27.976;2023-03-04T06:13:25;100612.56;;;5.86;100.00
5966;BME280;3009;43.224;27.976;2023-03-04T06:15:54;100614.41;;;5.85;100.00
5966;BME280;3009;43.224;27.976;2023-03-04T06:18:24;100613.66;;;5.80;100.00
5966;BME280;3009;43.224;27.976;2023-03-04T06:20:55;100610.94;;;5.90;100.00
5966;BME280;3009;43.224;27.976;2023-03-04T06:23:26;100615.19;;;5.91;100.00
5966;BME280;3009;43.224;27.976;2023-03-04T06:25:56;100603.81;;;5.75;100.00
5966;BME280;3009;43.224;27.976;2023-03-04T06:28:25;100598.16;;;5.87;100.00
5966;BME280;3009;43.224;27.976;2023-03-04T06:30:55;100604.56;;;5.81;100.00
5966;BME280;3009;43.224;27.976;2023-03-04T06:33:23;100609.91;;;5.76;100.00
5966;BME280;3009;43.224;27.976;2023-03-04T06:35:53;100604.03;;;5.89;100.00
5966;BME280;3009;43.224;27.976;2023-03-04T06:38:22;100599.78;;;5.98;100.00
5966;BME280;3009;43.224;27.976;2023-03-04T06:40:52;100592.47;;;6.25;100.00
5966;BME280;3009;43.224;27.976;2023-03-04T06:43:23;100589.25;;;6.33;100.00
5966;BME280;3009;43.224;27.976;2023-03-04T06:45:52;100583.41;;;6.31;100.00
5966;BME280;3009;43.224;27.976;2023-03-04T06:48:20;100584.13;;;6.47;100.00
5966;BME280;3009;43.224;27.976;2023-03-04T06:50:48;100578.97;;;6.61;100.00
5966;BME280;3009;43.224;27.976;2023-03-04T06:53:17;100578.19;;;6.60;100.00
5966;BME280;3009;43.224;27.976;2023-03-04T06:55:47;100575.75;;;6.69;100.00
5966;BME280;3009;43.224;27.976;2023-03-04T06:58:16;100562.69;;;7.02;100.00
5966;BME280;3009;43.224;27.976;2023-03-04T07:00:45;100563.38;;;7.18;100.00
5966;BME280;3009;43.224;27.976;2023-03-04T07:03:14;100554.47;;;7.27;100.00
5966;BME280;3009;43.224;27.976;2023-03-04T07:05:42;100549.16;;;7.52;100.00
5966;BME280;3009;43.224;27.976;2023-03-04T07:08:11;100549.81;;;7.68;100.00
5966;BME280;3009;43.224;27.976;2023-03-04T07:10:39;100545.25;;;7.68;100.00
5966;BME280;3009;43.224;27.976;2023-03-04T07:13:08;100540.09;;;8.01;100.00
5966;BME280;3009;43.224;27.976;2023-03-04T07:15:37;100539.88;;;7.73;99.94
5966;BME280;3009;43.224;27.976;2023-03-04T07:18:06;100549.97;;;8.01;100.00
5966;BME280;3009;43.224;27.976;2023-03-04T07:20:35;100542.47;;;8.03;97.16
5966;BME280;3009;43.224;27.976;2023-03-04T07:23:04;100552.72;;;8.14;97.07
5966;BME280;3009;43.224;27.976;2023-03-04T07:25:32;100549.84;;;8.11;95.25
5966;BME280;3009;43.224;27.976;2023-03-04T07:28:00;100539.69;;;8.32;93.78
5966;BME280;3009;43.224;27.976;2023-03-04T07:30:29;100532.88;;;8.21;92.23
5966;BME280;3009;43.224;27.976;2023-03-04T07:32:59;100529.09;;;8.46;90.43
5966;BME280;3009;43.224;27.976;2023-03-04T07:35:27;100530.72;;;8.42;92.67
5966;BME280;3009;43.224;27.976;2023-03-04T07:37:56;100532.81;;;8.07;92.94
5966;BME280;3009;43.224;27.976;2023-03-04T07:40:24;100530.41;;;8.05;92.62
5966;BME280;3009;43.224;27.976;2023-03-04T07:42:53;100535.34;;;8.36;91.53
5966;BME280;3009;43.224;27.976;2023-03-04T07:45:23;100547.66;;;8.56;89.93
5966;BME280;3009;43.224;27.976;2023-03-04T07:47:52;100537.66;;;8.81;87.07
5966;BME280;3009;43.224;27.976;2023-03-04T07:50:24;100545.81;;;8.90;85.94
5966;BME280;3009;43.224;27.976;2023-03-04T07:52:53;100540.91;;;8.78;84.96
5966;BME280;3009;43.224;27.976;2023-03-04T07:55:21;100539.63;;;9.08;83.65
5966;BME280;3009;43.224;27.976;2023-03-04T07:57:49;100540.13;;;9.10;82.91
5966;BME280;3009;43.224;27.976;2023-03-04T08:00:19;100541.06;;;9.19;83.53
5966;BME280;3009;43.224;27.976;2023-03-04T08:02:47;100533.63;;;9.16;84.68
5966;BME280;3009;43.224;27.976;2023-03-04T08:05:16;100530.97;;;9.30;85.01
5966;BME280;3009;43.224;27.976;2023-03-04T08:07:45;100529.19;;;9.67;81.47
5966;BME280;3009;43.224;27.976;2023-03-04T08:10:14;100529.28;;;9.62;80.22
5966;BME280;3009;43.224;27.976;2023-03-04T08:12:42;100524.53;;;9.73;80.30
5966;BME280;3009;43.224;27.976;2023-03-04T08:15:11;100530.97;;;9.86;80.66
5966;BME280;3009;43.224;27.976;2023-03-04T08:17:39;100519.56;;;9.94;80.55
5966;BME280;3009;43.224;27.976;2023-03-04T08:20:09;100526.50;;;9.67;80.81
5966;BME280;3009;43.224;27.976;2023-03-04T08:22:37;100524.34;;;9.69;80.96
5966;BME280;3009;43.224;27.976;2023-03-04T08:25:08;100519.47;;;9.44;81.45
5966;BME280;3009;43.224;27.976;2023-03-04T08:27:36;100526.50;;;8.93;86.41
5966;BME280;3009;43.224;27.976;2023-03-04T08:30:05;100530.13;;;9.16;85.82
5966;BME280;3009;43.224;27.976;2023-03-04T08:32:34;100523.72;;;9.45;84.27
5966;BME280;3009;43.224;27.976;2023-03-04T08:35:03;100522.53;;;9.51;82.84
5966;BME280;3009;43.224;27.976;2023-03-04T08:37:31;100525.72;;;9.53;82.75
5966;BME280;3009;43.224;27.976;2023-03-04T08:40:00;100521.94;;;9.54;81.82
5966;BME280;3009;43.224;27.976;2023-03-04T08:42:30;100524.19;;;9.19;81.96
5966;BME280;3009;43.224;27.976;2023-03-04T08:44:58;100526.59;;;9.34;85.33
5966;BME280;3009;43.224;27.976;2023-03-04T08:47:26;100527.28;;;9.26;84.96
5966;BME280;3009;43.224;27.976;2023-03-04T08:49:55;100529.81;;;9.03;85.46
5966;BME280;3009;43.224;27.976;2023-03-04T08:52:24;100528.19;;;9.35;86.87
5966;BME280;3009;43.224;27.976;2023-03-04T08:54:53;100523.66;;;9.50;86.29
5966;BME280;3009;43.224;27.976;2023-03-04T08:57:21;100520.56;;;9.29;88.86
5966;BME280;3009;43.224;27.976;2023-03-04T08:59:51;100512.59;;;9.37;86.72
5966;BME280;3009;43.224;27.976;2023-03-04T09:02:20;100515.50;;;9.27;86.69
5966;BME280;3009;43.224;27.976;2023-03-04T09:04:48;100513.00;;;9.31;86.90
5966;BME280;3009;43.224;27.976;2023-03-04T09:07:16;100512.53;;;9.43;85.33
5966;BME280;3009;43.224;27.976;2023-03-04T09:09:45;100507.47;;;9.41;86.12
5966;BME280;3009;43.224;27.976;2023-03-04T09:12:13;100504.31;;;9.67;84.22
5966;BME280;3009;43.224;27.976;2023-03-04T09:14:42;100503.19;;;9.54;84.89
5966;BME280;3009;43.224;27.976;2023-03-04T09:17:12;100506.19;;;9.38;85.93
5966;BME280;3009;43.224;27.976;2023-03-04T09:19:40;100501.63;;;9.53;85.17
5966;BME280;3009;43.224;27.976;2023-03-04T09:22:09;100505.88;;;9.54;84.38
5966;BME280;3009;43.224;27.976;2023-03-04T09:24:37;100497.25;;;9.57;84.66
5966;BME280;3009;43.224;27.976;2023-03-04T09:27:05;100492.41;;;9.59;84.93
5966;BME280;3009;43.224;27.976;2023-03-04T09:29:34;100492.50;;;9.54;82.46
5966;BME280;3009;43.224;27.976;2023-03-04T09:32:02;100488.44;;;9.56;82.42
5966;BME280;3009;43.224;27.976;2023-03-04T09:34:32;100492.91;;;9.47;82.91
5966;BME280;3009;43.224;27.976;2023-03-04T09:37:00;100490.81;;;9.72;83.64
5966;BME280;3009;43.224;27.976;2023-03-04T09:39:29;100484.16;;;9.83;82.07
5966;BME280;3009;43.224;27.976;2023-03-04T09:41:57;100481.22;;;9.71;81.91
5966;BME280;3009;43.224;27.976;2023-03-04T09:44:29;100472.16;;;9.81;79.46
5966;BME280;3009;43.224;27.976;2023-03-04T09:47:03;100481.00;;;9.67;81.37
5966;BME280;3009;43.224;27.976;2023-03-04T09:49:37;100466.91;;;9.62;80.55
5966;BME280;3009;43.224;27.976;2023-03-04T09:52:16;100460.66;;;9.80;81.97
5966;BME280;3009;43.224;27.976;2023-03-04T09:55:00;100461.41;;;9.94;80.20
5966;BME280;3009;43.224;27.976;2023-03-04T09:57:43;100455.44;;;10.11;78.71
5966;BME280;3009;43.224;27.976;2023-03-04T10:00:16;100457.47;;;10.28;77.73
5966;BME280;3009;43.224;27.976;2023-03-04T10:03:03;100447.31;;;10.39;76.86
5966;BME280;3009;43.224;27.976;2023-03-04T10:05:37;100446.34;;;10.35;76.89
5966;BME280;3009;43.224;27.976;2023-03-04T10:08:19;100445.84;;;9.97;76.67
5966;BME280;3009;43.224;27.976;2023-03-04T10:10:53;100441.09;;;9.80;78.01
5966;BME280;3009;43.224;27.976;2023-03-04T10:13:30;100437.94;;;9.78;79.12
5966;BME280;3009;43.224;27.976;2023-03-04T10:16:04;100435.69;;;9.71;79.79
5966;BME280;3009;43.224;27.976;2023-03-04T10:18:38;100445.31;;;9.58;83.58
5966;BME280;3009;43.224;27.976;2023-03-04T10:21:16;100436.28;;;9.68;85.86
5966;BME280;3009;43.224;27.976;2023-03-04T10:23:47;100449.19;;;9.52;85.95
5966;BME280;3009;43.224;27.976;2023-03-04T10:26:19;100442.06;;;9.33;85.74
5966;BME280;3009;43.224;27.976;2023-03-04T10:28:49;100435.00;;;9.37;86.00
5966;BME280;3009;43.224;27.976;2023-03-04T10:31:21;100429.34;;;9.39;86.15
5966;BME280;3009;43.224;27.976;2023-03-04T10:33:55;100421.69;;;9.60;85.31
5966;BME280;3009;43.224;27.976;2023-03-04T10:36:35;100419.31;;;9.58;84.60
5966;BME280;3009;43.224;27.976;2023-03-04T10:39:08;100421.00;;;9.68;84.08
5966;BME280;3009;43.224;27.976;2023-03-04T10:41:42;100431.06;;;9.49;84.92
5966;BME280;3009;43.224;27.976;2023-03-04T10:44:15;100428.09;;;9.22;87.82
5966;BME280;3009;43.224;27.976;2023-03-04T10:46:45;100415.00;;;9.35;88.03
5966;BME280;3009;43.224;27.976;2023-03-04T10:49:15;100405.38;;;8.92;88.16
5966;BME280;3009;43.224;27.976;2023-03-04T10:51:46;100405.00;;;9.13;89.14
5966;BME280;3009;43.224;27.976;2023-03-04T10:54:23;100394.56;;;9.39;87.20
5966;BME280;3009;43.224;27.976;2023-03-04T10:56:56;100391.19;;;9.47;87.67
5966;BME280;3009;43.224;27.976;2023-03-04T10:59:37;100389.44;;;9.43;91.76
5966;BME280;3009;43.224;27.976;2023-03-04T11:02:16;100387.47;;;9.20;94.16
5966;BME280;3009;43.224;27.976;2023-03-04T11:04:50;100386.06;;;9.23;93.72
5966;BME280;3009;43.224;27.976;2023-03-04T11:07:22;100384.09;;;9.15;93.07
5966;BME280;3009;43.224;27.976;2023-03-04T11:09:50;100369.81;;;9.05;92.88
5966;BME280;3009;43.224;27.976;2023-03-04T11:12:20;100357.94;;;9.12;92.94
5966;BME280;3009;43.224;27.976;2023-03-04T11:14:50;100363.69;;;9.05;92.45
5966;BME280;3009;43.224;27.976;2023-03-04T11:17:21;100356.38;;;9.11;93.01
5966;BME280;3009;43.224;27.976;2023-03-04T11:19:55;100358.75;;;8.98;93.36
5966;BME280;3009;43.224;27.976;2023-03-04T11:22:27;100348.81;;;9.13;93.88
5966;BME280;3009;43.224;27.976;2023-03-04T11:25:00;100343.44;;;9.27;95.21
5966;BME280;3009;43.224;27.976;2023-03-04T11:27:38;100332.09;;;9.21;93.63
5966;BME280;3009;43.224;27.976;2023-03-04T11:30:19;100339.13;;;8.89;93.45
5966;BME280;3009;43.224;27.976;2023-03-04T11:32:55;100331.50;;;8.96;94.68
5966;BME280;3009;43.224;27.976;2023-03-04T11:35:32;100328.41;;;8.89;95.49
5966;BME280;3009;43.224;27.976;2023-03-04T11:38:05;100318.72;;;8.93;92.26
5966;BME280;3009;43.224;27.976;2023-03-04T11:40:42;100325.44;;;8.91;93.70
5966;BME280;3009;43.224;27.976;2023-03-04T11:43:15;100310.38;;;9.22;92.24
5966;BME280;3009;43.224;27.976;2023-03-04T11:48:51;100308.13;;;9.02;87.50
5966;BME280;3009;43.224;27.976;2023-03-04T11:51:27;100317.44;;;8.77;88.95
5966;BME280;3009;43.224;27.976;2023-03-04T11:54:11;100311.28;;;8.90;88.78
5966;BME280;3009;43.224;27.976;2023-03-04T11:56:44;100314.94;;;8.66;89.36
5966;BME280;3009;43.224;27.976;2023-03-04T11:59:39;100305.84;;;8.81;90.06
5966;BME280;3009;43.224;27.976;2023-03-04T12:02:15;100307.44;;;8.82;89.13
5966;BME280;3009;43.224;27.976;2023-03-04T12:05:13;100300.59;;;8.76;89.48
5966;BME280;3009;43.224;27.976;2023-03-04T12:08:20;100315.84;;;9.03;90.56
5966;BME280;3009;43.224;27.976;2023-03-04T12:11:00;100321.41;;;8.32;94.51
5966;BME280;3009;43.224;27.976;2023-03-04T12:13:57;100311.94;;;8.40;94.27
5966;BME280;3009;43.224;27.976;2023-03-04T12:16:39;100322.63;;;8.40;93.48
5966;BME280;3009;43.224;27.976;2023-03-04T12:19:22;100316.19;;;8.41;93.60
5966;BME280;3009;43.224;27.976;2023-03-04T12:22:05;100321.09;;;8.20;95.56
5966;BME280;3009;43.224;27.976;2023-03-04T12:25:02;100320.25;;;8.06;97.86
5966;BME280;3009;43.224;27.976;2023-03-04T12:27:43;100328.06;;;8.02;98.69
5966;BME280;3009;43.224;27.976;2023-03-04T12:30:33;100328.69;;;8.13;98.61
5966;BME280;3009;43.224;27.976;2023-03-04T12:33:12;100330.44;;;8.04;99.37
5966;BME280;3009;43.224;27.976;2023-03-04T12:35:53;100324.03;;;8.05;100.00
5966;BME280;3009;43.224;27.976;2023-03-04T12:38:37;100328.88;;;8.16;98.90
5966;BME280;3009;43.224;27.976;2023-03-04T12:41:26;100326.47;;;8.34;99.50
5966;BME280;3009;43.224;27.976;2023-03-04T12:44:07;100321.44;;;8.13;99.67
5966;BME280;3009;43.224;27.976;2023-03-04T12:46:45;100318.38;;;8.06;98.87
5966;BME280;3009;43.224;27.976;2023-03-04T12:49:32;100319.59;;;8.14;99.65
5966;BME280;3009;43.224;27.976;2023-03-04T12:52:09;100318.22;;;7.65;100.00
5966;BME280;3009;43.224;27.976;2023-03-04T12:54:44;100306.31;;;7.38;100.00
5966;BME280;3009;43.224;27.976;2023-03-04T12:57:16;100308.53;;;7.88;100.00
5966;BME280;3009;43.224;27.976;2023-03-04T12:59:53;100309.50;;;8.11;100.00
5966;BME280;3009;43.224;27.976;2023-03-04T13:02:46;100295.47;;;8.33;100.00
5966;BME280;3009;43.224;27.976;2023-03-04T13:05:32;100298.09;;;8.38;99.88
5966;BME280;3009;43.224;27.976;2023-03-04T13:08:12;100296.06;;;8.16;100.00
5966;BME280;3009;43.224;27.976;2023-03-04T13:10:46;100293.63;;;8.33;100.00
5966;BME280;3009;43.224;27.976;2023-03-04T13:13:34;100291.78;;;8.15;100.00
5966;BME280;3009;43.224;27.976;2023-03-04T13:16:06;100292.84;;;8.00;100.00
5966;BME280;3009;43.224;27.976;2023-03-04T13:18:54;100290.59;;;7.55;100.00
5966;BME280;3009;43.224;27.976;2023-03-04T13:21:24;100280.56;;;7.47;100.00
5966;BME280;3009;43.224;27.976;2023-03-04T13:23:53;100285.47;;;7.78;100.00
5966;BME280;3009;43.224;27.976;2023-03-04T13:26:27;100283.09;;;7.76;100.00
5966;BME280;3009;43.224;27.976;2023-03-04T13:29:32;100276.31;;;7.65;100.00